createdAt,value
2017-12-23T00:00:03.318Z,0.00
2017-12-23T00:01:03.335Z,0.00
2017-12-23T00:02:03.349Z,0.00
2017-12-23T00:03:03.347Z,0.00
2017-12-23T00:04:03.362Z,0.00
2017-12-23T00:05:03.383Z,0.00
2017-12-23T00:06:03.385Z,0.00
2017-12-23T00:07:03.424Z,0.00
2017-12-23T00:08:03.420Z,0.00
2017-12-23T00:09:03.426Z,0.00
2017-12-23T00:10:03.467Z,0.00
2017-12-23T00:11:03.455Z,0.00
2017-12-23T00:12:03.483Z,0.00
2017-12-23T00:13:03.489Z,0.00
2017-12-23T00:14:03.502Z,0.00
2017-12-23T00:15:03.525Z,0.00
2017-12-23T00:16:03.529Z,0.00
2017-12-23T00:17:03.823Z,0.00
2017-12-23T00:18:03.542Z,0.00
2017-12-23T00:19:03.540Z,0.00
2017-12-23T00:20:03.562Z,0.00
2017-12-23T00:21:03.576Z,0.00
2017-12-23T00:22:03.899Z,0.00
2017-12-23T00:23:03.607Z,0.00
2017-12-23T00:24:03.617Z,0.00
2017-12-23T00:25:03.633Z,0.00
2017-12-23T00:26:03.654Z,0.00
2017-12-23T00:27:03.652Z,0.00
2017-12-23T00:28:03.673Z,0.00
2017-12-23T00:29:03.695Z,0.00
2017-12-23T00:30:03.711Z,0.00
2017-12-23T00:31:03.718Z,0.00
2017-12-23T00:32:03.734Z,0.00
2017-12-23T00:33:03.745Z,0.00
2017-12-23T00:34:03.759Z,0.00
2017-12-23T00:35:03.784Z,0.00
2017-12-23T00:36:03.787Z,0.00
2017-12-23T00:37:03.806Z,0.00
2017-12-23T00:38:03.818Z,0.00
2017-12-23T00:39:03.832Z,0.00
2017-12-23T00:40:03.842Z,0.00
2017-12-23T00:41:03.860Z,0.00
2017-12-23T00:42:03.874Z,0.00
2017-12-23T00:43:03.901Z,0.00
2017-12-23T00:44:03.911Z,0.00
2017-12-23T00:45:03.910Z,0.00
2017-12-23T00:46:03.935Z,0.00
2017-12-23T00:47:04.246Z,0.00
2017-12-23T00:48:03.968Z,0.00
2017-12-23T00:49:03.985Z,0.00
2017-12-23T00:50:03.982Z,0.00
2017-12-23T00:51:04.006Z,0.00
2017-12-23T00:52:04.017Z,0.00
2017-12-23T00:53:04.033Z,0.00
2017-12-23T00:54:04.048Z,0.00
2017-12-23T00:55:04.052Z,0.00
2017-12-23T00:56:04.074Z,0.00
2017-12-23T00:57:04.088Z,0.00
2017-12-23T00:58:04.094Z,0.00
2017-12-23T00:59:04.119Z,0.00
2017-12-23T01:00:04.135Z,0.00
2017-12-23T01:01:04.153Z,0.00
2017-12-23T01:02:04.168Z,0.00
2017-12-23T01:03:04.172Z,0.00
2017-12-23T01:04:04.194Z,0.00
2017-12-23T01:05:04.220Z,0.00
2017-12-23T01:06:04.219Z,0.00
2017-12-23T01:07:04.531Z,0.00
2017-12-23T01:08:04.240Z,0.00
2017-12-23T01:09:04.260Z,0.00
2017-12-23T01:10:04.278Z,0.00
2017-12-23T01:11:04.284Z,0.00
2017-12-23T01:12:04.300Z,0.00
2017-12-23T01:13:04.313Z,0.00
2017-12-23T01:14:04.337Z,0.00
2017-12-23T01:15:04.344Z,0.00
2017-12-23T01:16:04.354Z,0.00
2017-12-23T01:17:04.377Z,0.00
2017-12-23T01:18:04.390Z,0.00
2017-12-23T01:19:04.409Z,0.00
2017-12-23T01:20:04.411Z,0.00
2017-12-23T01:21:04.431Z,0.00
2017-12-23T01:22:04.754Z,0.00
2017-12-23T01:23:04.456Z,0.00
2017-12-23T01:24:04.466Z,0.00
2017-12-23T01:25:04.493Z,0.00
2017-12-23T01:26:04.497Z,0.00
2017-12-23T01:27:04.520Z,0.00
2017-12-23T01:28:04.523Z,0.00
2017-12-23T01:29:04.537Z,0.00
2017-12-23T01:30:04.558Z,0.00
2017-12-23T01:31:04.577Z,0.00
2017-12-23T01:32:04.589Z,0.00
2017-12-23T01:33:04.600Z,0.00
2017-12-23T01:34:04.608Z,0.00
2017-12-23T01:35:04.632Z,0.00
2017-12-23T01:36:04.636Z,0.00
2017-12-23T01:37:04.967Z,0.00
2017-12-23T01:38:04.667Z,0.00
2017-12-23T01:39:04.679Z,0.00
2017-12-23T01:40:04.709Z,0.00
2017-12-23T01:41:04.706Z,0.00
2017-12-23T01:42:04.728Z,0.00
2017-12-23T01:43:04.745Z,0.00
2017-12-23T01:44:04.753Z,0.00
2017-12-23T01:45:04.773Z,0.00
2017-12-23T01:46:04.785Z,0.00
2017-12-23T01:47:04.796Z,0.00
2017-12-23T01:48:04.812Z,0.00
2017-12-23T01:49:04.817Z,0.00
2017-12-23T01:50:04.842Z,0.00
2017-12-23T01:51:04.847Z,0.00
2017-12-23T01:52:04.857Z,0.00
2017-12-23T01:53:04.883Z,0.00
2017-12-23T01:54:04.888Z,0.00
2017-12-23T01:55:04.901Z,0.00
2017-12-23T01:56:04.928Z,0.00
2017-12-23T01:57:04.927Z,0.00
2017-12-23T01:58:04.953Z,0.00
2017-12-23T01:59:04.965Z,0.00
2017-12-23T02:00:04.981Z,0.00
2017-12-23T02:01:05.000Z,0.00
2017-12-23T02:02:05.299Z,0.00
2017-12-23T02:03:05.013Z,0.00
2017-12-23T02:04:05.040Z,0.00
2017-12-23T02:05:05.037Z,0.00
2017-12-23T02:06:05.064Z,0.00
2017-12-23T02:07:05.067Z,0.00
2017-12-23T02:08:05.077Z,0.00
2017-12-23T02:09:05.102Z,0.00
2017-12-23T02:10:05.107Z,0.00
2017-12-23T02:11:05.133Z,0.00
2017-12-23T02:12:05.143Z,0.00
2017-12-23T02:13:05.146Z,0.00
2017-12-23T02:14:05.172Z,0.00
2017-12-23T02:15:05.176Z,0.00
2017-12-23T02:16:05.194Z,0.00
2017-12-23T02:17:05.218Z,0.00
2017-12-23T02:18:05.235Z,0.00
2017-12-23T02:19:05.250Z,0.00
2017-12-23T02:20:05.270Z,0.00
2017-12-23T02:21:05.257Z,0.00
2017-12-23T02:22:05.589Z,0.00
2017-12-23T02:23:05.286Z,0.00
2017-12-23T02:24:05.314Z,0.00
2017-12-23T02:25:05.329Z,0.00
2017-12-23T02:26:05.325Z,0.00
2017-12-23T02:27:05.371Z,0.00
2017-12-23T02:28:05.367Z,0.00
2017-12-23T02:29:05.366Z,0.00
2017-12-23T02:30:05.391Z,0.00
2017-12-23T02:31:05.404Z,0.00
2017-12-23T02:32:05.426Z,0.00
2017-12-23T02:33:05.430Z,0.00
2017-12-23T02:34:05.440Z,0.00
2017-12-23T02:35:05.462Z,0.00
2017-12-23T02:36:05.478Z,0.00
2017-12-23T02:37:05.745Z,0.00
2017-12-23T02:38:05.508Z,0.00
2017-12-23T02:39:05.510Z,0.00
2017-12-23T02:40:05.526Z,0.00
2017-12-23T02:41:05.543Z,0.00
2017-12-23T02:42:05.546Z,0.00
2017-12-23T02:43:05.570Z,0.00
2017-12-23T02:44:05.580Z,0.00
2017-12-23T02:45:05.596Z,0.00
2017-12-23T02:46:05.616Z,0.00
2017-12-23T02:47:05.620Z,0.00
2017-12-23T02:48:05.641Z,0.00
2017-12-23T02:49:05.648Z,0.00
2017-12-23T02:50:05.669Z,0.00
2017-12-23T02:51:05.680Z,0.00
2017-12-23T02:52:05.749Z,0.00
2017-12-23T02:53:05.712Z,0.00
2017-12-23T02:54:05.714Z,0.00
2017-12-23T02:55:05.747Z,0.00
2017-12-23T02:56:05.755Z,0.00
2017-12-23T02:57:05.760Z,0.00
2017-12-23T02:58:05.790Z,0.00
2017-12-23T02:59:05.804Z,0.00
2017-12-23T03:00:05.793Z,0.00
2017-12-23T03:01:05.819Z,0.00
2017-12-23T03:02:05.829Z,0.00
2017-12-23T03:03:05.843Z,0.00
2017-12-23T03:04:05.857Z,0.00
2017-12-23T03:05:05.870Z,0.00
2017-12-23T03:06:05.890Z,0.00
2017-12-23T03:07:06.145Z,0.00
2017-12-23T03:08:05.909Z,0.00
2017-12-23T03:09:05.928Z,0.00
2017-12-23T03:10:05.940Z,0.00
2017-12-23T03:11:05.946Z,0.00
2017-12-23T03:12:06.274Z,0.00
2017-12-23T03:13:05.977Z,0.00
2017-12-23T03:14:05.985Z,0.00
2017-12-23T03:15:06.001Z,0.00
2017-12-23T03:16:06.012Z,0.00
2017-12-23T03:17:06.035Z,0.00
2017-12-23T03:18:06.039Z,0.00
2017-12-23T03:19:06.054Z,0.00
2017-12-23T03:20:06.074Z,0.00
2017-12-23T03:21:06.078Z,0.00
2017-12-23T03:22:06.092Z,0.00
2017-12-23T03:23:06.138Z,0.00
2017-12-23T03:24:06.124Z,0.00
2017-12-23T03:25:06.130Z,0.00
2017-12-23T03:26:06.148Z,0.00
2017-12-23T03:27:06.159Z,0.00
2017-12-23T03:28:06.169Z,0.00
2017-12-23T03:29:06.186Z,0.00
2017-12-23T03:30:06.219Z,0.00
2017-12-23T03:31:06.220Z,0.00
2017-12-23T03:32:06.232Z,0.00
2017-12-23T03:33:06.266Z,0.00
2017-12-23T03:34:06.263Z,0.00
2017-12-23T03:35:06.269Z,0.00
2017-12-23T03:36:06.282Z,0.00
2017-12-23T03:37:06.293Z,0.00
2017-12-23T03:38:06.307Z,0.00
2017-12-23T03:39:06.312Z,0.00
2017-12-23T03:40:06.339Z,0.00
2017-12-23T03:41:06.346Z,0.00
2017-12-23T03:42:06.664Z,0.00
2017-12-23T03:43:06.376Z,0.00
2017-12-23T03:44:06.388Z,0.00
2017-12-23T03:45:06.401Z,0.00
2017-12-23T03:46:06.415Z,0.00
2017-12-23T03:47:06.419Z,0.00
2017-12-23T03:48:06.450Z,0.00
2017-12-23T03:49:06.452Z,0.00
2017-12-23T03:50:06.483Z,0.00
2017-12-23T03:51:06.483Z,0.00
2017-12-23T03:52:06.491Z,0.00
2017-12-23T03:53:06.507Z,0.00
2017-12-23T03:54:06.528Z,0.00
2017-12-23T03:55:06.532Z,0.00
2017-12-23T03:56:06.553Z,0.00
2017-12-23T03:57:06.560Z,0.00
2017-12-23T03:58:06.569Z,0.00
2017-12-23T03:59:06.589Z,0.00
2017-12-23T04:00:06.598Z,0.00
2017-12-23T04:01:06.603Z,0.00
2017-12-23T04:02:06.640Z,0.00
2017-12-23T04:03:06.634Z,0.00
2017-12-23T04:04:06.649Z,0.00
2017-12-23T04:05:06.675Z,0.00
2017-12-23T04:06:06.671Z,0.00
2017-12-23T04:07:06.697Z,0.00
2017-12-23T04:08:06.710Z,0.00
2017-12-23T04:09:06.710Z,0.00
2017-12-23T04:10:06.736Z,0.00
2017-12-23T04:11:06.739Z,0.00
2017-12-23T04:12:06.747Z,0.00
2017-12-23T04:13:06.780Z,0.00
2017-12-23T04:14:06.784Z,0.00
2017-12-23T04:15:06.802Z,0.00
2017-12-23T04:16:06.818Z,0.00
2017-12-23T04:17:07.617Z,0.00
2017-12-23T04:18:06.841Z,0.00
2017-12-23T04:19:06.884Z,0.00
2017-12-23T04:20:06.855Z,0.00
2017-12-23T04:21:06.886Z,0.00
2017-12-23T04:22:06.891Z,0.00
2017-12-23T04:23:06.898Z,0.00
2017-12-23T04:24:06.917Z,0.00
2017-12-23T04:25:06.923Z,0.00
2017-12-23T04:26:06.958Z,0.00
2017-12-23T04:27:06.955Z,0.00
2017-12-23T04:28:06.961Z,0.00
2017-12-23T04:29:06.986Z,0.00
2017-12-23T04:30:06.991Z,0.00
2017-12-23T04:31:07.004Z,0.00
2017-12-23T04:32:07.026Z,0.00
2017-12-23T04:33:07.042Z,0.00
2017-12-23T04:34:07.062Z,0.00
2017-12-23T04:35:07.059Z,0.00
2017-12-23T04:36:07.067Z,0.00
2017-12-23T04:37:07.100Z,0.00
2017-12-23T04:38:07.098Z,0.00
2017-12-23T04:39:07.116Z,0.00
2017-12-23T04:40:07.131Z,0.00
2017-12-23T04:41:07.136Z,0.00
2017-12-23T04:42:07.150Z,0.00
2017-12-23T04:43:07.165Z,0.00
2017-12-23T04:44:07.176Z,0.00
2017-12-23T04:45:07.206Z,0.00
2017-12-23T04:46:07.203Z,0.00
2017-12-23T04:47:07.466Z,0.00
2017-12-23T04:48:07.244Z,0.00
2017-12-23T04:49:07.243Z,0.00
2017-12-23T04:50:07.264Z,0.00
2017-12-23T04:51:07.276Z,0.00
2017-12-23T04:52:07.287Z,0.00
2017-12-23T04:53:07.295Z,0.00
2017-12-23T04:54:07.311Z,0.00
2017-12-23T04:55:07.324Z,0.00
2017-12-23T04:56:07.345Z,0.00
2017-12-23T04:57:07.357Z,0.00
2017-12-23T04:58:07.366Z,0.00
2017-12-23T04:59:07.383Z,0.00
2017-12-23T05:00:07.392Z,0.00
2017-12-23T05:01:07.415Z,0.00
2017-12-23T05:02:07.428Z,0.00
2017-12-23T05:03:07.428Z,0.00
2017-12-23T05:04:07.436Z,0.00
2017-12-23T05:05:07.463Z,0.00
2017-12-23T05:06:07.472Z,0.00
2017-12-23T05:07:07.480Z,0.00
2017-12-23T05:08:07.498Z,0.00
2017-12-23T05:09:07.505Z,0.00
2017-12-23T05:10:07.529Z,0.00
2017-12-23T05:11:07.541Z,0.00
2017-12-23T05:12:07.549Z,0.00
2017-12-23T05:13:07.569Z,0.00
2017-12-23T05:14:07.580Z,0.00
2017-12-23T05:15:07.592Z,0.00
2017-12-23T05:16:07.606Z,0.00
2017-12-23T05:17:07.612Z,0.00
2017-12-23T05:18:07.637Z,0.00
2017-12-23T05:19:07.641Z,0.00
2017-12-23T05:20:07.649Z,0.00
2017-12-23T05:21:07.682Z,0.00
2017-12-23T05:22:07.982Z,0.00
2017-12-23T05:23:07.692Z,0.00
2017-12-23T05:24:07.714Z,0.00
2017-12-23T05:25:07.721Z,0.00
2017-12-23T05:26:07.739Z,0.00
2017-12-23T05:27:07.754Z,0.00
2017-12-23T05:28:07.757Z,0.00
2017-12-23T05:29:07.772Z,0.00
2017-12-23T05:30:07.794Z,0.00
2017-12-23T05:31:07.802Z,0.00
2017-12-23T05:32:07.829Z,0.00
2017-12-23T05:33:07.825Z,0.00
2017-12-23T05:34:07.839Z,0.00
2017-12-23T05:35:07.856Z,0.00
2017-12-23T05:36:07.878Z,0.00
2017-12-23T05:37:08.189Z,0.00
2017-12-23T05:38:07.895Z,0.00
2017-12-23T05:39:07.913Z,0.00
2017-12-23T05:40:07.928Z,0.00
2017-12-23T05:41:07.939Z,0.00
2017-12-23T05:42:08.247Z,0.00
2017-12-23T05:43:07.967Z,0.00
2017-12-23T05:44:07.978Z,0.00
2017-12-23T05:45:07.984Z,0.00
2017-12-23T05:46:08.009Z,0.00
2017-12-23T05:47:08.018Z,0.00
2017-12-23T05:48:08.032Z,0.00
2017-12-23T05:49:08.048Z,0.00
2017-12-23T05:50:08.061Z,0.00
2017-12-23T05:51:08.071Z,0.00
2017-12-23T05:52:08.092Z,0.00
2017-12-23T05:53:08.093Z,0.00
2017-12-23T05:54:08.110Z,0.00
2017-12-23T05:55:08.122Z,0.00
2017-12-23T05:56:08.139Z,0.00
2017-12-23T05:57:08.151Z,0.00
2017-12-23T05:58:08.169Z,0.00
2017-12-23T05:59:08.167Z,0.00
2017-12-23T06:00:08.199Z,0.00
2017-12-23T06:01:08.201Z,0.00
2017-12-23T06:02:08.457Z,0.00
2017-12-23T06:03:08.238Z,0.00
2017-12-23T06:04:08.246Z,0.00
2017-12-23T06:05:08.256Z,0.00
2017-12-23T06:06:08.271Z,0.00
2017-12-23T06:07:08.274Z,0.00
2017-12-23T06:08:08.308Z,0.00
2017-12-23T06:09:08.309Z,0.00
2017-12-23T06:10:08.313Z,0.00
2017-12-23T06:11:08.338Z,0.00
2017-12-23T06:12:08.349Z,0.00
2017-12-23T06:13:08.360Z,0.00
2017-12-23T06:14:08.386Z,0.00
2017-12-23T06:15:08.390Z,0.00
2017-12-23T06:16:08.399Z,0.00
2017-12-23T06:17:08.424Z,0.00
2017-12-23T06:18:08.428Z,0.00
2017-12-23T06:19:08.442Z,0.00
2017-12-23T06:20:08.462Z,0.00
2017-12-23T06:21:08.468Z,0.00
2017-12-23T06:22:08.487Z,0.00
2017-12-23T06:23:08.497Z,0.00
2017-12-23T06:24:08.519Z,0.00
2017-12-23T06:25:08.533Z,0.00
2017-12-23T06:26:08.531Z,0.00
2017-12-23T06:27:08.550Z,0.00
2017-12-23T06:28:08.564Z,0.00
2017-12-23T06:29:08.576Z,0.00
2017-12-23T06:30:08.594Z,0.00
2017-12-23T06:31:08.600Z,0.00
2017-12-23T06:32:08.608Z,0.00
2017-12-23T06:33:08.637Z,0.00
2017-12-23T06:34:08.640Z,0.00
2017-12-23T06:35:08.653Z,0.00
2017-12-23T06:36:08.673Z,0.00
2017-12-23T06:37:08.679Z,0.00
2017-12-23T06:38:08.692Z,0.00
2017-12-23T06:39:08.721Z,0.00
2017-12-23T06:40:08.718Z,0.00
2017-12-23T06:41:08.750Z,0.00
2017-12-23T06:42:08.747Z,0.00
2017-12-23T06:43:08.768Z,4.00
2017-12-23T06:44:08.790Z,4.00
2017-12-23T06:45:08.794Z,4.00
2017-12-23T06:46:08.800Z,4.00
2017-12-23T06:47:08.823Z,4.00
2017-12-23T06:48:08.827Z,0.00
2017-12-23T06:49:08.842Z,4.00
2017-12-23T06:50:08.864Z,4.00
2017-12-23T06:51:08.878Z,4.00
2017-12-23T06:52:08.891Z,4.00
2017-12-23T06:53:08.908Z,8.00
2017-12-23T06:54:08.916Z,4.00
2017-12-23T06:55:08.926Z,8.00
2017-12-23T06:56:08.936Z,8.00
2017-12-23T06:57:08.949Z,8.00
2017-12-23T06:58:08.973Z,12.00
2017-12-23T06:59:08.979Z,8.00
2017-12-23T07:00:08.996Z,12.00
2017-12-23T07:01:09.005Z,12.00
2017-12-23T07:02:09.326Z,16.00
2017-12-23T07:03:09.035Z,16.00
2017-12-23T07:04:09.052Z,20.00
2017-12-23T07:05:09.060Z,24.00
2017-12-23T07:06:09.079Z,28.00
2017-12-23T07:07:09.092Z,28.00
2017-12-23T07:08:09.093Z,32.00
2017-12-23T07:09:09.118Z,36.00
2017-12-23T07:10:09.135Z,36.00
2017-12-23T07:11:09.161Z,40.00
2017-12-23T07:12:09.165Z,44.00
2017-12-23T07:13:09.162Z,44.00
2017-12-23T07:14:09.188Z,48.00
2017-12-23T07:15:09.194Z,52.00
2017-12-23T07:16:09.211Z,64.00
2017-12-23T07:17:09.227Z,64.00
2017-12-23T07:18:09.234Z,64.00
2017-12-23T07:19:09.258Z,76.00
2017-12-23T07:20:09.279Z,80.00
2017-12-23T07:21:09.286Z,84.00
2017-12-23T07:22:09.597Z,100.00
2017-12-23T07:23:09.301Z,96.00
2017-12-23T07:24:09.330Z,104.00
2017-12-23T07:25:09.343Z,116.00
2017-12-23T07:26:09.341Z,120.00
2017-12-23T07:27:09.375Z,136.00
2017-12-23T07:28:09.383Z,156.00
2017-12-23T07:29:09.400Z,152.00
2017-12-23T07:30:09.413Z,160.00
2017-12-23T07:31:09.417Z,152.00
2017-12-23T07:32:09.439Z,176.00
2017-12-23T07:33:09.445Z,176.00
2017-12-23T07:34:09.469Z,176.00
2017-12-23T07:35:09.483Z,192.00
2017-12-23T07:36:09.492Z,204.00
2017-12-23T07:37:09.809Z,220.00
2017-12-23T07:38:09.515Z,228.00
2017-12-23T07:39:09.521Z,252.00
2017-12-23T07:40:09.541Z,256.00
2017-12-23T07:41:09.562Z,280.00
2017-12-23T07:42:09.578Z,304.00
2017-12-23T07:43:09.592Z,296.00
2017-12-23T07:44:09.607Z,288.00
2017-12-23T07:45:09.620Z,340.00
2017-12-23T07:46:09.627Z,308.00
2017-12-23T07:47:09.648Z,316.00
2017-12-23T07:48:09.658Z,340.00
2017-12-23T07:49:09.677Z,344.00
2017-12-23T07:50:09.688Z,356.00
2017-12-23T07:51:09.702Z,352.00
2017-12-23T07:52:09.716Z,376.00
2017-12-23T07:53:09.728Z,380.00
2017-12-23T07:54:09.754Z,400.00
2017-12-23T07:55:09.753Z,392.00
2017-12-23T07:56:09.772Z,392.00
2017-12-23T07:57:09.792Z,412.00
2017-12-23T07:58:09.796Z,440.00
2017-12-23T07:59:09.816Z,472.00
2017-12-23T08:00:09.824Z,468.00
2017-12-23T08:01:09.849Z,492.00
2017-12-23T08:02:10.157Z,508.00
2017-12-23T08:03:09.867Z,524.00
2017-12-23T08:04:09.881Z,552.00
2017-12-23T08:05:09.897Z,536.00
2017-12-23T08:06:09.913Z,572.00
2017-12-23T08:07:09.931Z,576.00
2017-12-23T08:08:09.954Z,596.00
2017-12-23T08:09:09.952Z,588.00
2017-12-23T08:10:09.977Z,592.00
2017-12-23T08:11:09.982Z,596.00
2017-12-23T08:12:09.992Z,596.00
2017-12-23T08:13:10.017Z,608.00
2017-12-23T08:14:10.022Z,632.00
2017-12-23T08:15:10.047Z,608.00
2017-12-23T08:16:10.063Z,608.00
2017-12-23T08:17:10.081Z,648.00
2017-12-23T08:18:10.093Z,644.00
2017-12-23T08:19:10.112Z,660.00
2017-12-23T08:20:10.115Z,684.00
2017-12-23T08:21:10.132Z,700.00
2017-12-23T08:22:10.142Z,676.00
2017-12-23T08:23:10.156Z,620.00
2017-12-23T08:24:10.178Z,592.00
2017-12-23T08:25:10.192Z,548.00
2017-12-23T08:26:10.208Z,600.00
2017-12-23T08:27:10.222Z,592.00
2017-12-23T08:28:10.222Z,640.00
2017-12-23T08:29:10.247Z,700.00
2017-12-23T08:30:10.258Z,612.00
2017-12-23T08:31:10.277Z,684.00
2017-12-23T08:32:10.299Z,788.00
2017-12-23T08:33:10.304Z,816.00
2017-12-23T08:34:10.324Z,760.00
2017-12-23T08:35:10.339Z,816.00
2017-12-23T08:36:10.344Z,860.00
2017-12-23T08:37:10.378Z,908.00
2017-12-23T08:38:10.375Z,956.00
2017-12-23T08:39:10.394Z,916.00
2017-12-23T08:40:10.417Z,940.00
2017-12-23T08:41:10.426Z,968.00
2017-12-23T08:42:10.741Z,940.00
2017-12-23T08:43:10.450Z,904.00
2017-12-23T08:44:10.464Z,960.00
2017-12-23T08:45:10.490Z,924.00
2017-12-23T08:46:10.509Z,908.00
2017-12-23T08:47:10.509Z,948.00
2017-12-23T08:48:10.536Z,1020.00
2017-12-23T08:49:10.535Z,960.00
2017-12-23T08:50:10.568Z,992.00
2017-12-23T08:51:10.565Z,952.00
2017-12-23T08:52:10.587Z,1044.00
2017-12-23T08:53:10.599Z,1164.00
2017-12-23T08:54:10.623Z,1192.00
2017-12-23T08:55:10.631Z,1204.00
2017-12-23T08:56:10.647Z,1288.00
2017-12-23T08:57:10.657Z,1308.00
2017-12-23T08:58:10.671Z,1348.00
2017-12-23T08:59:10.686Z,1320.00
2017-12-23T09:00:10.703Z,1148.00
2017-12-23T09:01:10.722Z,1136.00
2017-12-23T09:02:10.725Z,912.00
2017-12-23T09:03:10.752Z,952.00
2017-12-23T09:04:10.761Z,900.00
2017-12-23T09:05:10.778Z,876.00
2017-12-23T09:06:10.791Z,812.00
2017-12-23T09:07:10.809Z,832.00
2017-12-23T09:08:10.817Z,876.00
2017-12-23T09:09:10.849Z,864.00
2017-12-23T09:10:10.849Z,876.00
2017-12-23T09:11:10.874Z,864.00
2017-12-23T09:12:11.188Z,948.00
2017-12-23T09:13:10.901Z,1080.00
2017-12-23T09:14:10.958Z,1072.00
2017-12-23T09:15:10.948Z,1092.00
2017-12-23T09:16:10.943Z,1188.00
2017-12-23T09:17:10.960Z,1272.00
2017-12-23T09:18:10.973Z,1316.00
2017-12-23T09:19:10.979Z,1408.00
2017-12-23T09:20:11.001Z,1508.00
2017-12-23T09:21:11.013Z,1624.00
2017-12-23T09:22:11.030Z,1452.00
2017-12-23T09:23:11.044Z,1512.00
2017-12-23T09:24:11.071Z,1444.00
2017-12-23T09:25:11.069Z,1392.00
2017-12-23T09:26:11.103Z,1392.00
2017-12-23T09:27:11.100Z,1320.00
2017-12-23T09:28:11.122Z,1400.00
2017-12-23T09:29:11.134Z,1328.00
2017-12-23T09:30:11.158Z,1280.00
2017-12-23T09:31:11.165Z,1368.00
2017-12-23T09:32:11.185Z,1416.00
2017-12-23T09:33:11.198Z,1416.00
2017-12-23T09:34:11.223Z,1416.00
2017-12-23T09:35:11.222Z,1264.00
2017-12-23T09:36:11.243Z,1280.00
2017-12-23T09:37:11.256Z,1236.00
2017-12-23T09:38:11.273Z,1268.00
2017-12-23T09:39:11.286Z,1196.00
2017-12-23T09:40:11.312Z,1180.00
2017-12-23T09:41:11.318Z,1184.00
2017-12-23T09:42:11.338Z,1100.00
2017-12-23T09:43:11.343Z,1064.00
2017-12-23T09:44:11.374Z,996.00
2017-12-23T09:45:11.378Z,948.00
2017-12-23T09:46:11.394Z,1000.00
2017-12-23T09:47:11.408Z,1200.00
2017-12-23T09:48:11.436Z,1328.00
2017-12-23T09:49:11.433Z,1320.00
2017-12-23T09:50:11.477Z,1240.00
2017-12-23T09:51:11.464Z,1452.00
2017-12-23T09:52:11.485Z,1936.00
2017-12-23T09:53:11.505Z,2016.00
2017-12-23T09:54:11.519Z,2148.00
2017-12-23T09:55:11.529Z,2236.00
2017-12-23T09:56:11.549Z,2672.00
2017-12-23T09:57:11.868Z,2444.00
2017-12-23T09:58:11.586Z,2876.00
2017-12-23T09:59:11.592Z,3176.00
2017-12-23T10:00:11.608Z,3208.00
2017-12-23T10:01:11.620Z,3208.00
2017-12-23T10:02:11.637Z,2996.00
2017-12-23T10:03:11.651Z,3120.00
2017-12-23T10:04:11.671Z,3560.00
2017-12-23T10:05:11.676Z,3780.00
2017-12-23T10:06:11.701Z,4036.00
2017-12-23T10:07:11.713Z,4352.00
2017-12-23T10:08:11.728Z,3096.00
2017-12-23T10:09:11.740Z,2584.00
2017-12-23T10:10:11.757Z,2720.00
2017-12-23T10:11:11.778Z,3092.00
2017-12-23T10:12:11.798Z,2972.00
2017-12-23T10:13:11.797Z,3352.00
2017-12-23T10:14:11.830Z,2388.00
2017-12-23T10:15:11.828Z,2128.00
2017-12-23T10:16:11.850Z,2084.00
2017-12-23T10:17:12.125Z,1856.00
2017-12-23T10:18:11.878Z,1812.00
2017-12-23T10:19:11.910Z,1672.00
2017-12-23T10:20:11.919Z,1728.00
2017-12-23T10:21:11.936Z,1588.00
2017-12-23T10:22:11.945Z,2220.00
2017-12-23T10:23:11.960Z,2172.00
2017-12-23T10:24:11.971Z,2196.00
2017-12-23T10:25:11.996Z,2256.00
2017-12-23T10:26:12.007Z,2320.00
2017-12-23T10:27:12.026Z,2528.00
2017-12-23T10:28:12.036Z,2476.00
2017-12-23T10:29:12.058Z,2716.00
2017-12-23T10:30:12.066Z,2660.00
2017-12-23T10:31:12.089Z,3204.00
2017-12-23T10:32:12.093Z,3328.00
2017-12-23T10:33:12.117Z,2804.00
2017-12-23T10:34:12.143Z,3320.00
2017-12-23T10:35:12.154Z,2980.00
2017-12-23T10:36:12.176Z,3200.00
2017-12-23T10:37:12.181Z,3616.00
2017-12-23T10:38:12.206Z,3600.00
2017-12-23T10:39:12.211Z,3456.00
2017-12-23T10:40:12.225Z,3836.00
2017-12-23T10:41:12.244Z,4120.00
2017-12-23T10:42:12.256Z,3780.00
2017-12-23T10:43:12.268Z,3380.00
2017-12-23T10:44:12.290Z,3200.00
2017-12-23T10:45:12.307Z,2556.00
2017-12-23T10:46:12.328Z,1724.00
2017-12-23T10:47:12.338Z,2024.00
2017-12-23T10:48:12.353Z,2112.00
2017-12-23T10:49:12.371Z,1708.00
2017-12-23T10:50:12.379Z,1624.00
2017-12-23T10:51:12.409Z,2252.00
2017-12-23T10:52:12.430Z,2140.00
2017-12-23T10:53:12.429Z,2224.00
2017-12-23T10:54:12.445Z,2900.00
2017-12-23T10:55:12.460Z,2852.00
2017-12-23T10:56:12.486Z,3516.00
2017-12-23T10:57:12.500Z,3656.00
2017-12-23T10:58:12.511Z,3764.00
2017-12-23T10:59:12.530Z,3184.00
2017-12-23T11:00:12.552Z,2824.00
2017-12-23T11:01:12.556Z,2932.00
2017-12-23T11:02:12.581Z,2528.00
2017-12-23T11:03:12.587Z,2880.00
2017-12-23T11:04:12.608Z,3144.00
2017-12-23T11:05:12.627Z,3428.00
2017-12-23T11:06:12.630Z,3044.00
2017-12-23T11:07:12.665Z,3128.00
2017-12-23T11:08:12.666Z,2704.00
2017-12-23T11:09:12.683Z,3348.00
2017-12-23T11:10:12.709Z,3964.00
2017-12-23T11:11:12.714Z,3196.00
2017-12-23T11:12:12.735Z,3352.00
2017-12-23T11:13:12.749Z,3772.00
2017-12-23T11:14:12.766Z,4104.00
2017-12-23T11:15:12.784Z,4076.00
2017-12-23T11:16:12.807Z,4076.00
2017-12-23T11:17:12.806Z,4400.00
2017-12-23T11:18:12.834Z,3644.00
2017-12-23T11:19:12.853Z,4380.00
2017-12-23T11:20:12.863Z,3848.00
2017-12-23T11:21:12.887Z,3568.00
2017-12-23T11:22:13.198Z,3928.00
2017-12-23T11:23:12.908Z,3796.00
2017-12-23T11:24:12.928Z,4148.00
2017-12-23T11:25:12.942Z,3648.00
2017-12-23T11:26:12.959Z,3416.00
2017-12-23T11:27:12.972Z,4132.00
2017-12-23T11:28:12.995Z,4460.00
2017-12-23T11:29:13.007Z,3832.00
2017-12-23T11:30:13.031Z,4304.00
2017-12-23T11:31:13.041Z,4440.00
2017-12-23T11:32:13.050Z,5516.00
2017-12-23T11:33:13.083Z,5700.00
2017-12-23T11:34:13.081Z,5812.00
2017-12-23T11:35:13.106Z,5388.00
2017-12-23T11:36:13.134Z,4836.00
2017-12-23T11:37:13.132Z,4732.00
2017-12-23T11:38:13.165Z,5024.00
2017-12-23T11:39:13.163Z,5244.00
2017-12-23T11:40:13.193Z,4164.00
2017-12-23T11:41:13.216Z,3972.00
2017-12-23T11:42:13.214Z,4020.00
2017-12-23T11:43:13.240Z,4000.00
2017-12-23T11:44:13.256Z,4300.00
2017-12-23T11:45:13.267Z,4784.00
2017-12-23T11:46:13.291Z,4664.00
2017-12-23T11:47:13.295Z,4352.00
2017-12-23T11:48:13.324Z,4612.00
2017-12-23T11:49:13.338Z,4140.00
2017-12-23T11:50:13.355Z,5216.00
2017-12-23T11:51:13.380Z,5064.00
2017-12-23T11:52:13.382Z,5452.00
2017-12-23T11:53:13.400Z,4936.00
2017-12-23T11:54:13.426Z,4088.00
2017-12-23T11:55:13.436Z,3564.00
2017-12-23T11:56:13.450Z,2796.00
2017-12-23T11:57:13.764Z,2984.00
2017-12-23T11:58:13.488Z,2756.00
2017-12-23T11:59:13.508Z,2412.00
2017-12-23T12:00:13.515Z,2504.00
2017-12-23T12:01:13.533Z,3180.00
2017-12-23T12:02:13.854Z,2736.00
2017-12-23T12:03:13.564Z,2688.00
2017-12-23T12:04:13.584Z,2736.00
2017-12-23T12:05:13.604Z,3100.00
2017-12-23T12:06:13.622Z,3696.00
2017-12-23T12:07:13.645Z,3332.00
2017-12-23T12:08:13.653Z,3380.00
2017-12-23T12:09:13.673Z,3436.00
2017-12-23T12:10:13.686Z,3408.00
2017-12-23T12:11:13.698Z,4444.00
2017-12-23T12:12:13.724Z,3888.00
2017-12-23T12:13:13.732Z,3908.00
2017-12-23T12:14:13.748Z,4148.00
2017-12-23T12:15:13.770Z,3712.00
2017-12-23T12:16:13.784Z,3588.00
2017-12-23T12:17:14.071Z,3104.00
2017-12-23T12:18:13.820Z,2912.00
2017-12-23T12:19:13.838Z,2152.00
2017-12-23T12:20:13.854Z,2052.00
2017-12-23T12:21:13.872Z,1684.00
2017-12-23T12:22:13.889Z,1836.00
2017-12-23T12:23:13.903Z,1836.00
2017-12-23T12:24:13.924Z,1700.00
2017-12-23T12:25:13.934Z,1588.00
2017-12-23T12:26:13.958Z,1576.00
2017-12-23T12:27:14.265Z,1856.00
2017-12-23T12:28:13.979Z,1492.00
2017-12-23T12:29:14.001Z,1560.00
2017-12-23T12:30:14.023Z,1528.00
2017-12-23T12:31:14.042Z,1368.00
2017-12-23T12:32:14.049Z,1472.00
2017-12-23T12:33:14.061Z,1396.00
2017-12-23T12:34:14.080Z,1444.00
2017-12-23T12:35:14.099Z,1280.00
2017-12-23T12:36:14.106Z,1316.00
2017-12-23T12:37:14.438Z,1672.00
2017-12-23T12:38:14.143Z,1304.00
2017-12-23T12:39:14.163Z,1540.00
2017-12-23T12:40:14.183Z,1228.00
2017-12-23T12:41:14.190Z,1412.00
2017-12-23T12:42:14.221Z,1600.00
2017-12-23T12:43:14.219Z,1480.00
2017-12-23T12:44:14.247Z,1580.00
2017-12-23T12:45:14.263Z,1556.00
2017-12-23T12:46:14.270Z,1560.00
2017-12-23T12:47:14.302Z,1912.00
2017-12-23T12:48:14.305Z,1860.00